Healdton, Oklahoma
Current Conditions -  °F | °C
As of 5:15 PM on Thursday 27 Nov 2014 (Local Time) from K1F0 Reporting Station
Clear Clear  
Wind Chill: 50°   Ceiling: Unl
Heat Index: 50°   Visibility: 10mi
Dew Point: 21°   Wind: 0mph
Humidity: 32%   Direction: NA
Pressure: 30.39"   Gusts: NA
Location:  34.23°N, 97.49°W
Report Text: K1F0 272315Z AUTO 00000KT 10SM CLR 10/M06 A3039 RMK AO2
Loading
Personal Weather Stations






























Interactive Weather Map New forecast layout! Learn more

10-Day Weather Forecast

Advertisements
Track Severe Weather on mobile